sensor_id;sensor_type;location;lat;lon;timestamp;P1;durP1;ratioP1;P2;durP2;ratioP2
68196;SDS011;55019;49.382;11.358;2023-09-18T00:00:46;3.55;;;2.70;;
68196;SDS011;55019;49.382;11.358;2023-09-18T00:03:15;2.53;;;2.28;;
68196;SDS011;55019;49.382;11.358;2023-09-18T00:05:46;2.90;;;2.30;;
68196;SDS011;55019;49.382;11.358;2023-09-18T00:08:13;2.30;;;2.08;;
68196;SDS011;55019;49.382;11.358;2023-09-18T00:10:39;2.97;;;2.55;;
68196;SDS011;55019;49.382;11.358;2023-09-18T00:13:05;2.72;;;2.10;;
68196;SDS011;55019;49.382;11.358;2023-09-18T00:15:31;2.33;;;2.08;;
68196;SDS011;55019;49.382;11.358;2023-09-18T00:17:57;2.65;;;1.90;;
68196;SDS011;55019;49.382;11.358;2023-09-18T00:20:22;3.03;;;2.40;;
68196;SDS011;55019;49.382;11.358;2023-09-18T00:22:55;2.70;;;2.25;;
68196;SDS011;55019;49.382;11.358;2023-09-18T00:25:24;2.33;;;2.13;;
68196;SDS011;55019;49.382;11.358;2023-09-18T00:27:50;2.25;;;2.00;;
68196;SDS011;55019;49.382;11.358;2023-09-18T00:30:17;3.08;;;2.45;;
68196;SDS011;55019;49.382;11.358;2023-09-18T00:32:43;2.53;;;2.22;;
68196;SDS011;55019;49.382;11.358;2023-09-18T00:35:09;2.85;;;2.38;;
68196;SDS011;55019;49.382;11.358;2023-09-18T00:37:34;3.42;;;2.50;;
68196;SDS011;55019;49.382;11.358;2023-09-18T00:40:02;2.33;;;2.13;;
68196;SDS011;55019;49.382;11.358;2023-09-18T00:42:30;2.50;;;2.08;;
68196;SDS011;55019;49.382;11.358;2023-09-18T00:44:56;3.05;;;1.98;;
68196;SDS011;55019;49.382;11.358;2023-09-18T00:47:22;2.30;;;2.00;;
68196;SDS011;55019;49.382;11.358;2023-09-18T00:49:48;2.30;;;2.00;;
68196;SDS011;55019;49.382;11.358;2023-09-18T00:52:16;2.60;;;2.40;;
68196;SDS011;55019;49.382;11.358;2023-09-18T00:54:45;2.83;;;1.98;;
68196;SDS011;55019;49.382;11.358;2023-09-18T00:57:13;2.42;;;2.22;;
68196;SDS011;55019;49.382;11.358;2023-09-18T00:59:39;3.05;;;2.42;;
68196;SDS011;55019;49.382;11.358;2023-09-18T01:13:36;2.50;;;2.28;;
68196;SDS011;55019;49.382;11.358;2023-09-18T01:16:08;3.15;;;2.40;;
68196;SDS011;55019;49.382;11.358;2023-09-18T01:18:47;2.58;;;2.38;;
68196;SDS011;55019;49.382;11.358;2023-09-18T01:21:14;2.90;;;2.42;;
68196;SDS011;55019;49.382;11.358;2023-09-18T01:23:40;2.92;;;2.30;;
68196;SDS011;55019;49.382;11.358;2023-09-18T01:26:06;3.08;;;2.85;;
68196;SDS011;55019;49.382;11.358;2023-09-18T01:28:31;2.67;;;2.40;;
68196;SDS011;55019;49.382;11.358;2023-09-18T01:30:57;3.28;;;2.65;;
68196;SDS011;55019;49.382;11.358;2023-09-18T01:33:23;3.13;;;2.83;;
68196;SDS011;55019;49.382;11.358;2023-09-18T01:35:50;4.47;;;3.05;;
68196;SDS011;55019;49.382;11.358;2023-09-18T01:38:20;3.17;;;2.58;;
68196;SDS011;55019;49.382;11.358;2023-09-18T01:40:47;3.58;;;2.78;;
68196;SDS011;55019;49.382;11.358;2023-09-18T01:43:13;3.13;;;2.80;;
68196;SDS011;55019;49.382;11.358;2023-09-18T01:45:39;2.70;;;2.47;;
68196;SDS011;55019;49.382;11.358;2023-09-18T01:48:06;2.88;;;2.50;;
68196;SDS011;55019;49.382;11.358;2023-09-18T01:50:32;3.63;;;2.60;;
68196;SDS011;55019;49.382;11.358;2023-09-18T01:52:58;3.22;;;2.40;;
68196;SDS011;55019;49.382;11.358;2023-09-18T01:55:24;2.90;;;2.60;;
68196;SDS011;55019;49.382;11.358;2023-09-18T02:00:17;2.97;;;2.30;;
68196;SDS011;55019;49.382;11.358;2023-09-18T02:02:43;3.03;;;2.72;;
68196;SDS011;55019;49.382;11.358;2023-09-18T02:05:09;3.30;;;2.53;;
68196;SDS011;55019;49.382;11.358;2023-09-18T02:07:35;4.47;;;2.90;;
68196;SDS011;55019;49.382;11.358;2023-09-18T02:10:01;2.70;;;2.45;;
68196;SDS011;55019;49.382;11.358;2023-09-18T02:12:27;4.00;;;3.25;;
68196;SDS011;55019;49.382;11.358;2023-09-18T02:14:52;3.97;;;3.05;;
68196;SDS011;55019;49.382;11.358;2023-09-18T02:17:18;3.72;;;2.83;;
68196;SDS011;55019;49.382;11.358;2023-09-18T02:19:46;3.72;;;2.92;;
68196;SDS011;55019;49.382;11.358;2023-09-18T02:22:11;3.58;;;3.08;;
68196;SDS011;55019;49.382;11.358;2023-09-18T02:24:37;4.32;;;3.10;;
68196;SDS011;55019;49.382;11.358;2023-09-18T02:27:04;3.80;;;2.90;;
68196;SDS011;55019;49.382;11.358;2023-09-18T02:31:56;3.05;;;2.58;;
68196;SDS011;55019;49.382;11.358;2023-09-18T02:34:22;3.53;;;3.22;;
68196;SDS011;55019;49.382;11.358;2023-09-18T02:36:48;3.20;;;2.85;;
68196;SDS011;55019;49.382;11.358;2023-09-18T02:39:13;3.45;;;3.15;;
68196;SDS011;55019;49.382;11.358;2023-09-18T02:41:39;2.90;;;2.40;;
68196;SDS011;55019;49.382;11.358;2023-09-18T02:44:05;3.33;;;2.67;;
68196;SDS011;55019;49.382;11.358;2023-09-18T02:46:31;3.13;;;2.80;;
68196;SDS011;55019;49.382;11.358;2023-09-18T02:48:56;3.53;;;3.22;;
68196;SDS011;55019;49.382;11.358;2023-09-18T02:51:22;3.20;;;2.90;;
68196;SDS011;55019;49.382;11.358;2023-09-18T02:53:49;4.05;;;3.20;;
68196;SDS011;55019;49.382;11.358;2023-09-18T02:56:15;3.25;;;2.60;;
68196;SDS011;55019;49.382;11.358;2023-09-18T02:58:41;3.88;;;3.35;;
68196;SDS011;55019;49.382;11.358;2023-09-18T03:01:07;3.38;;;2.60;;
68196;SDS011;55019;49.382;11.358;2023-09-18T03:03:33;3.40;;;2.67;;
68196;SDS011;55019;49.382;11.358;2023-09-18T03:06:00;3.50;;;2.95;;
68196;SDS011;55019;49.382;11.358;2023-09-18T03:08:28;3.50;;;3.20;;
68196;SDS011;55019;49.382;11.358;2023-09-18T03:10:54;5.80;;;3.70;;
68196;SDS011;55019;49.382;11.358;2023-09-18T03:13:21;5.97;;;4.13;;
68196;SDS011;55019;49.382;11.358;2023-09-18T03:15:47;6.68;;;5.97;;
68196;SDS011;55019;49.382;11.358;2023-09-18T03:18:13;4.00;;;3.60;;
68196;SDS011;55019;49.382;11.358;2023-09-18T03:20:42;5.15;;;4.65;;
68196;SDS011;55019;49.382;11.358;2023-09-18T03:23:11;6.70;;;5.47;;
68196;SDS011;55019;49.382;11.358;2023-09-18T03:25:36;4.85;;;4.35;;
68196;SDS011;55019;49.382;11.358;2023-09-18T03:28:05;5.25;;;4.75;;
68196;SDS011;55019;49.382;11.358;2023-09-18T03:30:32;5.97;;;4.95;;
68196;SDS011;55019;49.382;11.358;2023-09-18T03:32:58;3.38;;;3.08;;
68196;SDS011;55019;49.382;11.358;2023-09-18T03:35:25;4.60;;;4.18;;
68196;SDS011;55019;49.382;11.358;2023-09-18T03:37:54;4.00;;;3.60;;
68196;SDS011;55019;49.382;11.358;2023-09-18T03:40:20;4.43;;;3.88;;
68196;SDS011;55019;49.382;11.358;2023-09-18T03:42:48;5.70;;;4.15;;
68196;SDS011;55019;49.382;11.358;2023-09-18T03:45:17;5.35;;;4.47;;
68196;SDS011;55019;49.382;11.358;2023-09-18T03:47:46;5.22;;;4.53;;
68196;SDS011;55019;49.382;11.358;2023-09-18T03:50:15;6.25;;;4.80;;
68196;SDS011;55019;49.382;11.358;2023-09-18T03:52:42;4.70;;;3.53;;
68196;SDS011;55019;49.382;11.358;2023-09-18T03:55:08;4.22;;;3.80;;
68196;SDS011;55019;49.382;11.358;2023-09-18T03:57:34;3.95;;;3.33;;
68196;SDS011;55019;49.382;11.358;2023-09-18T04:00:00;5.60;;;4.18;;
68196;SDS011;55019;49.382;11.358;2023-09-18T04:02:26;5.35;;;3.40;;
68196;SDS011;55019;49.382;11.358;2023-09-18T04:04:55;4.32;;;3.40;;
68196;SDS011;55019;49.382;11.358;2023-09-18T04:07:21;3.90;;;3.38;;
68196;SDS011;55019;49.382;11.358;2023-09-18T04:09:46;4.25;;;3.53;;
68196;SDS011;55019;49.382;11.358;2023-09-18T04:12:13;6.93;;;4.70;;
68196;SDS011;55019;49.382;11.358;2023-09-18T04:17:05;3.42;;;2.95;;
68196;SDS011;55019;49.382;11.358;2023-09-18T04:19:31;4.40;;;3.55;;
68196;SDS011;55019;49.382;11.358;2023-09-18T04:21:57;3.58;;;3.25;;
68196;SDS011;55019;49.382;11.358;2023-09-18T04:24:23;5.32;;;3.42;;
68196;SDS011;55019;49.382;11.358;2023-09-18T04:26:49;4.05;;;3.42;;
68196;SDS011;55019;49.382;11.358;2023-09-18T04:29:18;5.95;;;3.50;;
68196;SDS011;55019;49.382;11.358;2023-09-18T04:31:45;4.45;;;3.92;;
68196;SDS011;55019;49.382;11.358;2023-09-18T04:34:11;3.35;;;3.05;;
68196;SDS011;55019;49.382;11.358;2023-09-18T04:36:37;3.78;;;3.42;;
68196;SDS011;55019;49.382;11.358;2023-09-18T04:39:05;5.72;;;3.38;;
68196;SDS011;55019;49.382;11.358;2023-09-18T04:41:31;4.15;;;3.38;;
68196;SDS011;55019;49.382;11.358;2023-09-18T04:43:57;4.00;;;3.08;;
68196;SDS011;55019;49.382;11.358;2023-09-18T04:46:24;4.15;;;3.33;;
68196;SDS011;55019;49.382;11.358;2023-09-18T04:48:50;3.47;;;2.97;;
68196;SDS011;55019;49.382;11.358;2023-09-18T04:51:16;4.32;;;3.35;;
68196;SDS011;55019;49.382;11.358;2023-09-18T04:53:42;3.55;;;3.25;;
68196;SDS011;55019;49.382;11.358;2023-09-18T04:56:08;3.90;;;3.10;;
68196;SDS011;55019;49.382;11.358;2023-09-18T04:58:35;4.38;;;3.20;;
68196;SDS011;55019;49.382;11.358;2023-09-18T05:01:02;4.47;;;2.90;;
68196;SDS011;55019;49.382;11.358;2023-09-18T05:03:33;3.17;;;2.88;;
68196;SDS011;55019;49.382;11.358;2023-09-18T05:05:59;4.20;;;3.28;;
68196;SDS011;55019;49.382;11.358;2023-09-18T05:08:25;4.43;;;3.58;;
68196;SDS011;55019;49.382;11.358;2023-09-18T05:10:51;4.85;;;3.22;;
68196;SDS011;55019;49.382;11.358;2023-09-18T05:13:16;3.67;;;2.95;;
68196;SDS011;55019;49.382;11.358;2023-09-18T05:15:42;4.78;;;3.08;;
68196;SDS011;55019;49.382;11.358;2023-09-18T05:18:08;3.75;;;3.38;;
68196;SDS011;55019;49.382;11.358;2023-09-18T05:20:35;4.57;;;3.70;;
68196;SDS011;55019;49.382;11.358;2023-09-18T05:23:00;3.78;;;3.45;;
68196;SDS011;55019;49.382;11.358;2023-09-18T05:25:29;3.75;;;3.20;;
68196;SDS011;55019;49.382;11.358;2023-09-18T05:27:59;3.50;;;3.20;;
68196;SDS011;55019;49.382;11.358;2023-09-18T05:30:26;3.53;;;3.10;;
68196;SDS011;55019;49.382;11.358;2023-09-18T05:32:54;3.95;;;3.42;;
68196;SDS011;55019;49.382;11.358;2023-09-18T05:35:20;3.95;;;2.83;;
68196;SDS011;55019;49.382;11.358;2023-09-18T05:37:46;4.68;;;3.33;;
68196;SDS011;55019;49.382;11.358;2023-09-18T05:40:13;4.10;;;3.28;;
68196;SDS011;55019;49.382;11.358;2023-09-18T05:42:40;3.53;;;3.22;;
68196;SDS011;55019;49.382;11.358;2023-09-18T05:45:10;4.50;;;3.47;;
68196;SDS011;55019;49.382;11.358;2023-09-18T05:47:36;4.28;;;3.22;;
68196;SDS011;55019;49.382;11.358;2023-09-18T05:50:06;3.30;;;3.00;;
68196;SDS011;55019;49.382;11.358;2023-09-18T05:52:33;3.92;;;3.50;;
68196;SDS011;55019;49.382;11.358;2023-09-18T05:55:01;5.45;;;3.40;;
68196;SDS011;55019;49.382;11.358;2023-09-18T05:57:28;3.75;;;3.05;;
68196;SDS011;55019;49.382;11.358;2023-09-18T05:59:54;4.43;;;2.97;;
68196;SDS011;55019;49.382;11.358;2023-09-18T06:02:20;4.75;;;3.85;;
68196;SDS011;55019;49.382;11.358;2023-09-18T06:04:46;3.83;;;2.80;;
68196;SDS011;55019;49.382;11.358;2023-09-18T06:07:12;5.88;;;3.45;;
68196;SDS011;55019;49.382;11.358;2023-09-18T06:09:38;3.78;;;3.10;;
68196;SDS011;55019;49.382;11.358;2023-09-18T06:12:05;4.13;;;3.72;;
68196;SDS011;55019;49.382;11.358;2023-09-18T06:14:31;4.78;;;3.45;;
68196;SDS011;55019;49.382;11.358;2023-09-18T06:16:59;3.70;;;3.25;;
68196;SDS011;55019;49.382;11.358;2023-09-18T06:19:25;3.47;;;2.70;;
68196;SDS011;55019;49.382;11.358;2023-09-18T06:21:51;4.03;;;3.63;;
68196;SDS011;55019;49.382;11.358;2023-09-18T06:24:16;4.88;;;3.53;;
68196;SDS011;55019;49.382;11.358;2023-09-18T06:26:42;3.95;;;3.58;;
68196;SDS011;55019;49.382;11.358;2023-09-18T06:29:08;3.45;;;3.15;;
68196;SDS011;55019;49.382;11.358;2023-09-18T06:31:35;4.55;;;3.00;;
68196;SDS011;55019;49.382;11.358;2023-09-18T06:34:01;4.07;;;3.20;;
68196;SDS011;55019;49.382;11.358;2023-09-18T06:36:26;3.88;;;3.38;;
68196;SDS011;55019;49.382;11.358;2023-09-18T06:38:52;4.30;;;3.60;;
68196;SDS011;55019;49.382;11.358;2023-09-18T06:41:18;4.47;;;3.25;;
68196;SDS011;55019;49.382;11.358;2023-09-18T06:43:44;4.15;;;3.75;;
68196;SDS011;55019;49.382;11.358;2023-09-18T06:46:10;3.90;;;3.60;;
68196;SDS011;55019;49.382;11.358;2023-09-18T06:48:36;5.28;;;3.65;;
68196;SDS011;55019;49.382;11.358;2023-09-18T06:51:02;4.13;;;3.72;;
68196;SDS011;55019;49.382;11.358;2023-09-18T06:53:28;5.15;;;3.83;;
68196;SDS011;55019;49.382;11.358;2023-09-18T06:55:54;4.30;;;3.50;;
68196;SDS011;55019;49.382;11.358;2023-09-18T06:58:20;4.03;;;3.63;;
68196;SDS011;55019;49.382;11.358;2023-09-18T07:00:46;4.68;;;3.30;;
68196;SDS011;55019;49.382;11.358;2023-09-18T07:03:12;3.50;;;3.20;;
68196;SDS011;55019;49.382;11.358;2023-09-18T07:05:41;4.03;;;3.30;;
68196;SDS011;55019;49.382;11.358;2023-09-18T07:08:08;5.88;;;3.42;;
68196;SDS011;55019;49.382;11.358;2023-09-18T07:10:37;4.15;;;3.60;;
68196;SDS011;55019;49.382;11.358;2023-09-18T07:13:03;3.92;;;3.53;;
68196;SDS011;55019;49.382;11.358;2023-09-18T07:15:29;4.65;;;3.13;;
68196;SDS011;55019;49.382;11.358;2023-09-18T07:17:55;4.00;;;3.42;;
68196;SDS011;55019;49.382;11.358;2023-09-18T07:20:21;6.45;;;3.47;;
68196;SDS011;55019;49.382;11.358;2023-09-18T07:22:48;3.65;;;3.28;;
68196;SDS011;55019;49.382;11.358;2023-09-18T07:25:14;6.43;;;4.22;;
68196;SDS011;55019;49.382;11.358;2023-09-18T07:27:41;4.15;;;3.58;;
68196;SDS011;55019;49.382;11.358;2023-09-18T07:30:10;5.80;;;4.10;;
68196;SDS011;55019;49.382;11.358;2023-09-18T07:32:37;4.43;;;3.65;;
68196;SDS011;55019;49.382;11.358;2023-09-18T07:35:06;4.25;;;3.58;;
68196;SDS011;55019;49.382;11.358;2023-09-18T07:37:33;4.47;;;3.97;;
68196;SDS011;55019;49.382;11.358;2023-09-18T07:39:59;4.15;;;3.75;;
68196;SDS011;55019;49.382;11.358;2023-09-18T07:42:25;4.25;;;3.85;;
68196;SDS011;55019;49.382;11.358;2023-09-18T07:44:51;5.22;;;3.65;;
68196;SDS011;55019;49.382;11.358;2023-09-18T07:47:17;4.20;;;3.33;;
68196;SDS011;55019;49.382;11.358;2023-09-18T07:49:43;4.38;;;3.75;;
68196;SDS011;55019;49.382;11.358;2023-09-18T07:52:08;3.90;;;3.50;;
68196;SDS011;55019;49.382;11.358;2023-09-18T07:54:35;3.95;;;3.22;;
68196;SDS011;55019;49.382;11.358;2023-09-18T07:57:01;5.03;;;3.30;;
68196;SDS011;55019;49.382;11.358;2023-09-18T07:59:26;3.55;;;3.25;;
68196;SDS011;55019;49.382;11.358;2023-09-18T08:01:53;5.93;;;3.63;;
68196;SDS011;55019;49.382;11.358;2023-09-18T08:04:20;4.38;;;3.03;;
68196;SDS011;55019;49.382;11.358;2023-09-18T08:06:46;3.60;;;3.17;;
68196;SDS011;55019;49.382;11.358;2023-09-18T08:09:12;5.55;;;3.58;;
68196;SDS011;55019;49.382;11.358;2023-09-18T08:11:42;4.10;;;2.90;;
68196;SDS011;55019;49.382;11.358;2023-09-18T08:14:08;4.05;;;3.05;;
68196;SDS011;55019;49.382;11.358;2023-09-18T08:16:37;4.05;;;3.63;;
68196;SDS011;55019;49.382;11.358;2023-09-18T08:19:06;3.55;;;3.13;;
68196;SDS011;55019;49.382;11.358;2023-09-18T08:21:32;6.55;;;3.70;;
68196;SDS011;55019;49.382;11.358;2023-09-18T08:23:58;5.28;;;2.97;;
68196;SDS011;55019;49.382;11.358;2023-09-18T08:26:24;5.93;;;3.30;;
68196;SDS011;55019;49.382;11.358;2023-09-18T08:28:54;5.97;;;3.35;;
68196;SDS011;55019;49.382;11.358;2023-09-18T08:31:20;4.07;;;2.72;;
68196;SDS011;55019;49.382;11.358;2023-09-18T08:33:45;4.13;;;3.13;;
68196;SDS011;55019;49.382;11.358;2023-09-18T08:36:11;3.97;;;3.20;;
68196;SDS011;55019;49.382;11.358;2023-09-18T08:38:38;3.50;;;3.20;;
68196;SDS011;55019;49.382;11.358;2023-09-18T08:41:03;4.68;;;3.33;;
68196;SDS011;55019;49.382;11.358;2023-09-18T08:43:31;4.75;;;3.40;;
68196;SDS011;55019;49.382;11.358;2023-09-18T08:45:57;3.47;;;3.17;;
68196;SDS011;55019;49.382;11.358;2023-09-18T08:48:27;4.35;;;3.03;;
68196;SDS011;55019;49.382;11.358;2023-09-18T08:51:06;3.20;;;2.90;;
68196;SDS011;55019;49.382;11.358;2023-09-18T08:53:38;4.25;;;3.00;;
68196;SDS011;55019;49.382;11.358;2023-09-18T08:56:05;3.80;;;3.30;;
68196;SDS011;55019;49.382;11.358;2023-09-18T08:58:35;4.05;;;2.78;;
68196;SDS011;55019;49.382;11.358;2023-09-18T09:01:08;5.53;;;3.45;;
68196;SDS011;55019;49.382;11.358;2023-09-18T09:03:38;5.75;;;3.00;;
68196;SDS011;55019;49.382;11.358;2023-09-18T09:06:05;4.65;;;3.30;;
68196;SDS011;55019;49.382;11.358;2023-09-18T09:08:36;4.85;;;3.35;;
68196;SDS011;55019;49.382;11.358;2023-09-18T09:11:03;4.82;;;2.72;;
68196;SDS011;55019;49.382;11.358;2023-09-18T09:13:29;5.38;;;2.65;;
68196;SDS011;55019;49.382;11.358;2023-09-18T09:15:59;4.60;;;2.45;;
68196;SDS011;55019;49.382;11.358;2023-09-18T09:18:27;4.97;;;3.03;;
68196;SDS011;55019;49.382;11.358;2023-09-18T09:21:03;5.50;;;3.55;;
68196;SDS011;55019;49.382;11.358;2023-09-18T09:23:52;5.90;;;2.55;;
68196;SDS011;55019;49.382;11.358;2023-09-18T09:26:19;5.95;;;2.92;;
68196;SDS011;55019;49.382;11.358;2023-09-18T09:28:48;4.97;;;2.60;;
68196;SDS011;55019;49.382;11.358;2023-09-18T09:31:30;4.93;;;2.90;;
68196;SDS011;55019;49.382;11.358;2023-09-18T09:33:56;5.25;;;2.55;;
68196;SDS011;55019;49.382;11.358;2023-09-18T09:36:23;5.40;;;2.80;;
68196;SDS011;55019;49.382;11.358;2023-09-18T09:38:56;2.55;;;1.80;;
68196;SDS011;55019;49.382;11.358;2023-09-18T09:41:23;4.30;;;1.77;;
68196;SDS011;55019;49.382;11.358;2023-09-18T09:43:51;3.47;;;2.15;;
68196;SDS011;55019;49.382;11.358;2023-09-18T09:46:20;5.10;;;2.08;;
68196;SDS011;55019;49.382;11.358;2023-09-18T09:49:06;3.72;;;2.10;;
68196;SDS011;55019;49.382;11.358;2023-09-18T09:51:35;6.65;;;2.70;;
68196;SDS011;55019;49.382;11.358;2023-09-18T09:54:01;4.40;;;3.75;;
68196;SDS011;55019;49.382;11.358;2023-09-18T09:56:40;5.35;;;2.38;;
68196;SDS011;55019;49.382;11.358;2023-09-18T09:59:11;2.60;;;2.08;;
68196;SDS011;55019;49.382;11.358;2023-09-18T10:01:41;3.85;;;2.60;;
68196;SDS011;55019;49.382;11.358;2023-09-18T10:04:13;4.18;;;2.05;;
68196;SDS011;55019;49.382;11.358;2023-09-18T10:06:44;5.60;;;2.28;;
68196;SDS011;55019;49.382;11.358;2023-09-18T10:09:13;5.82;;;2.20;;
68196;SDS011;55019;49.382;11.358;2023-09-18T10:11:41;4.40;;;2.25;;
68196;SDS011;55019;49.382;11.358;2023-09-18T10:14:20;5.85;;;2.38;;
68196;SDS011;55019;49.382;11.358;2023-09-18T10:16:54;3.38;;;2.40;;
68196;SDS011;55019;49.382;11.358;2023-09-18T10:19:31;4.82;;;2.63;;
68196;SDS011;55019;49.382;11.358;2023-09-18T10:24:36;4.30;;;2.17;;
68196;SDS011;55019;49.382;11.358;2023-09-18T10:29:31;5.57;;;2.50;;
68196;SDS011;55019;49.382;11.358;2023-09-18T10:31:58;4.47;;;2.30;;
68196;SDS011;55019;49.382;11.358;2023-09-18T10:34:24;4.70;;;2.72;;
68196;SDS011;55019;49.382;11.358;2023-09-18T10:36:51;4.20;;;2.22;;
68196;SDS011;55019;49.382;11.358;2023-09-18T10:39:20;5.55;;;2.60;;
68196;SDS011;55019;49.382;11.358;2023-09-18T10:41:55;4.65;;;2.40;;
68196;SDS011;55019;49.382;11.358;2023-09-18T10:44:27;4.30;;;2.95;;
68196;SDS011;55019;49.382;11.358;2023-09-18T10:49:21;3.50;;;1.58;;
68196;SDS011;55019;49.382;11.358;2023-09-18T10:51:47;4.57;;;2.13;;
68196;SDS011;55019;49.382;11.358;2023-09-18T10:54:20;5.97;;;2.10;;
68196;SDS011;55019;49.382;11.358;2023-09-18T10:56:47;4.18;;;1.73;;
68196;SDS011;55019;49.382;11.358;2023-09-18T10:59:14;3.78;;;1.60;;
68196;SDS011;55019;49.382;11.358;2023-09-18T11:01:41;4.53;;;2.35;;
68196;SDS011;55019;49.382;11.358;2023-09-18T11:04:08;3.35;;;1.98;;
68196;SDS011;55019;49.382;11.358;2023-09-18T11:09:46;3.47;;;1.33;;
68196;SDS011;55019;49.382;11.358;2023-09-18T11:12:14;2.80;;;1.80;;
68196;SDS011;55019;49.382;11.358;2023-09-18T11:20:05;6.75;;;1.73;;
68196;SDS011;55019;49.382;11.358;2023-09-18T11:22:58;2.40;;;1.63;;
68196;SDS011;55019;49.382;11.358;2023-09-18T11:25:38;3.15;;;1.42;;
68196;SDS011;55019;49.382;11.358;2023-09-18T11:28:12;1.95;;;1.55;;
68196;SDS011;55019;49.382;11.358;2023-09-18T11:30:48;2.13;;;1.10;;
68196;SDS011;55019;49.382;11.358;2023-09-18T11:33:15;2.85;;;1.17;;
68196;SDS011;55019;49.382;11.358;2023-09-18T11:36:05;3.45;;;1.33;;
68196;SDS011;55019;49.382;11.358;2023-09-18T11:38:35;4.40;;;1.65;;
68196;SDS011;55019;49.382;11.358;2023-09-18T11:41:22;2.25;;;0.95;;
68196;SDS011;55019;49.382;11.358;2023-09-18T11:43:51;4.38;;;1.00;;
68196;SDS011;55019;49.382;11.358;2023-09-18T11:46:18;4.30;;;1.20;;
68196;SDS011;55019;49.382;11.358;2023-09-18T11:48:46;3.25;;;1.48;;
68196;SDS011;55019;49.382;11.358;2023-09-18T11:51:20;5.60;;;1.48;;
68196;SDS011;55019;49.382;11.358;2023-09-18T11:53:49;3.83;;;1.30;;
68196;SDS011;55019;49.382;11.358;2023-09-18T11:56:17;3.15;;;0.70;;
68196;SDS011;55019;49.382;11.358;2023-09-18T11:58:49;2.75;;;1.13;;
68196;SDS011;55019;49.382;11.358;2023-09-18T12:01:17;2.40;;;1.08;;
68196;SDS011;55019;49.382;11.358;2023-09-18T12:03:44;3.05;;;1.00;;
68196;SDS011;55019;49.382;11.358;2023-09-18T12:06:10;3.30;;;0.85;;
68196;SDS011;55019;49.382;11.358;2023-09-18T12:08:41;3.83;;;0.90;;
68196;SDS011;55019;49.382;11.358;2023-09-18T12:11:07;2.83;;;0.82;;
68196;SDS011;55019;49.382;11.358;2023-09-18T12:13:33;2.03;;;0.70;;
68196;SDS011;55019;49.382;11.358;2023-09-18T12:16:02;3.38;;;1.10;;
68196;SDS011;55019;49.382;11.358;2023-09-18T12:18:31;1.92;;;1.17;;
68196;SDS011;55019;49.382;11.358;2023-09-18T12:21:01;4.38;;;1.20;;
68196;SDS011;55019;49.382;11.358;2023-09-18T12:23:36;4.25;;;1.13;;
68196;SDS011;55019;49.382;11.358;2023-09-18T12:26:06;2.00;;;1.27;;
68196;SDS011;55019;49.382;11.358;2023-09-18T12:28:33;1.52;;;0.88;;
68196;SDS011;55019;49.382;11.358;2023-09-18T12:31:02;1.30;;;0.68;;
68196;SDS011;55019;49.382;11.358;2023-09-18T12:33:35;2.80;;;0.85;;
68196;SDS011;55019;49.382;11.358;2023-09-18T12:36:05;5.35;;;0.75;;
68196;SDS011;55019;49.382;11.358;2023-09-18T12:38:32;3.15;;;1.17;;
68196;SDS011;55019;49.382;11.358;2023-09-18T12:40:59;2.55;;;1.05;;
68196;SDS011;55019;49.382;11.358;2023-09-18T12:43:38;2.85;;;0.80;;
68196;SDS011;55019;49.382;11.358;2023-09-18T12:46:07;2.75;;;0.77;;
68196;SDS011;55019;49.382;11.358;2023-09-18T12:48:37;4.10;;;1.15;;
68196;SDS011;55019;49.382;11.358;2023-09-18T12:51:04;2.70;;;0.95;;
68196;SDS011;55019;49.382;11.358;2023-09-18T12:53:31;1.80;;;0.70;;
68196;SDS011;55019;49.382;11.358;2023-09-18T12:56:31;1.98;;;0.75;;
68196;SDS011;55019;49.382;11.358;2023-09-18T12:58:56;3.40;;;0.80;;
68196;SDS011;55019;49.382;11.358;2023-09-18T13:01:23;1.05;;;0.63;;
68196;SDS011;55019;49.382;11.358;2023-09-18T13:03:49;1.40;;;0.57;;
68196;SDS011;55019;49.382;11.358;2023-09-18T13:06:15;1.25;;;0.40;;
68196;SDS011;55019;49.382;11.358;2023-09-18T13:08:43;3.20;;;0.47;;
68196;SDS011;55019;49.382;11.358;2023-09-18T13:11:09;3.03;;;0.50;;
68196;SDS011;55019;49.382;11.358;2023-09-18T13:13:44;1.75;;;0.35;;
68196;SDS011;55019;49.382;11.358;2023-09-18T13:16:10;2.45;;;0.35;;
68196;SDS011;55019;49.382;11.358;2023-09-18T13:18:40;1.50;;;0.50;;
68196;SDS011;55019;49.382;11.358;2023-09-18T13:21:09;0.70;;;0.30;;
68196;SDS011;55019;49.382;11.358;2023-09-18T13:23:36;1.48;;;0.43;;
68196;SDS011;55019;49.382;11.358;2023-09-18T13:26:06;1.20;;;0.60;;
68196;SDS011;55019;49.382;11.358;2023-09-18T13:28:33;1.67;;;0.80;;
68196;SDS011;55019;49.382;11.358;2023-09-18T13:31:01;3.58;;;0.65;;
68196;SDS011;55019;49.382;11.358;2023-09-18T13:33:30;2.15;;;0.60;;
68196;SDS011;55019;49.382;11.358;2023-09-18T13:35:58;1.83;;;0.60;;
68196;SDS011;55019;49.382;11.358;2023-09-18T13:38:24;1.38;;;0.50;;
68196;SDS011;55019;49.382;11.358;2023-09-18T13:40:51;0.88;;;0.60;;
68196;SDS011;55019;49.382;11.358;2023-09-18T13:43:20;0.52;;;0.35;;
68196;SDS011;55019;49.382;11.358;2023-09-18T13:45:48;0.70;;;0.52;;
68196;SDS011;55019;49.382;11.358;2023-09-18T13:48:18;1.50;;;0.43;;
68196;SDS011;55019;49.382;11.358;2023-09-18T13:50:44;0.70;;;0.50;;
68196;SDS011;55019;49.382;11.358;2023-09-18T13:53:12;1.83;;;0.30;;
68196;SDS011;55019;49.382;11.358;2023-09-18T13:55:38;1.38;;;0.50;;
68196;SDS011;55019;49.382;11.358;2023-09-18T13:58:07;1.95;;;0.40;;
68196;SDS011;55019;49.382;11.358;2023-09-18T14:00:34;1.65;;;0.35;;
68196;SDS011;55019;49.382;11.358;2023-09-18T14:03:01;3.92;;;0.68;;
68196;SDS011;55019;49.382;11.358;2023-09-18T14:05:36;1.50;;;0.63;;
68196;SDS011;55019;49.382;11.358;2023-09-18T14:08:14;2.67;;;0.93;;
68196;SDS011;55019;49.382;11.358;2023-09-18T14:10:50;2.38;;;0.52;;
68196;SDS011;55019;49.382;11.358;2023-09-18T14:13:16;2.28;;;1.00;;
68196;SDS011;55019;49.382;11.358;2023-09-18T14:19:08;1.42;;;0.40;;
68196;SDS011;55019;49.382;11.358;2023-09-18T14:22:07;0.90;;;0.50;;
68196;SDS011;55019;49.382;11.358;2023-09-18T14:24:33;1.65;;;0.60;;
68196;SDS011;55019;49.382;11.358;2023-09-18T14:27:01;2.45;;;0.80;;
68196;SDS011;55019;49.382;11.358;2023-09-18T14:31:53;1.35;;;0.47;;
68196;SDS011;55019;49.382;11.358;2023-09-18T14:34:19;1.48;;;0.40;;
68196;SDS011;55019;49.382;11.358;2023-09-18T14:36:44;2.38;;;1.05;;
68196;SDS011;55019;49.382;11.358;2023-09-18T14:39:10;1.63;;;0.95;;
68196;SDS011;55019;49.382;11.358;2023-09-18T14:41:37;2.78;;;0.70;;
68196;SDS011;55019;49.382;11.358;2023-09-18T14:44:04;0.80;;;0.30;;
68196;SDS011;55019;49.382;11.358;2023-09-18T14:46:31;1.00;;;0.40;;
68196;SDS011;55019;49.382;11.358;2023-09-18T14:49:00;0.98;;;0.40;;
68196;SDS011;55019;49.382;11.358;2023-09-18T14:51:29;0.47;;;0.22;;
68196;SDS011;55019;49.382;11.358;2023-09-18T14:53:57;2.88;;;0.50;;
68196;SDS011;55019;49.382;11.358;2023-09-18T14:56:23;1.52;;;0.38;;
68196;SDS011;55019;49.382;11.358;2023-09-18T14:58:49;2.38;;;0.35;;
68196;SDS011;55019;49.382;11.358;2023-09-18T15:01:20;1.05;;;0.30;;
68196;SDS011;55019;49.382;11.358;2023-09-18T15:03:46;1.08;;;0.40;;
68196;SDS011;55019;49.382;11.358;2023-09-18T15:06:13;0.95;;;0.28;;
68196;SDS011;55019;49.382;11.358;2023-09-18T15:08:50;2.35;;;0.30;;
68196;SDS011;55019;49.382;11.358;2023-09-18T15:11:16;0.73;;;0.20;;
68196;SDS011;55019;49.382;11.358;2023-09-18T15:13:42;1.63;;;0.20;;
68196;SDS011;55019;49.382;11.358;2023-09-18T15:16:11;0.20;;;0.10;;
68196;SDS011;55019;49.382;11.358;2023-09-18T15:18:38;0.93;;;0.30;;